Time;durP1;ratioP1;P1;durP2;ratioP2;P2;SDS_P1;SDS_P2;PMS_P1;PMS_P2;Temp;Humidity;BMP_temperature;BMP_pressure;BME280_temperature;BME280_humidity;BME280_pressure;Samples;Min_cycle;Max_cycle;Signal;HPM_P1;HPM_P2
2021/06/12 00:01:20;;;;;;;9.13;8.23;;;19.40;99.90;;;;;;5071386;28;20858;-81
2021/06/12 00:03:45;;;;;;;9.50;8.32;;;19.50;99.90;;;;;;5087045;28;20434;-82
2021/06/12 00:06:11;;;;;;;9.63;8.00;;;19.40;99.90;;;;;;5089564;28;20368;-84
2021/06/12 00:08:37;;;;;;;8.73;7.82;;;19.60;99.90;;;;;;5090167;28;20426;-83
2021/06/12 00:11:03;;;;;;;9.63;8.40;;;19.60;99.90;;;;;;5088493;28;20724;-84
2021/06/12 00:13:29;;;;;;;10.47;8.13;;;19.60;99.90;;;;;;5088331;28;20862;-81
2021/06/12 00:15:56;;;;;;;10.57;7.78;;;19.60;99.90;;;;;;5070973;28;21571;-79
2021/06/12 00:18:23;;;;;;;8.57;7.63;;;19.70;99.90;;;;;;5089752;28;20388;-82
2021/06/12 00:20:50;;;;;;;8.68;7.85;;;19.70;99.90;;;;;;5089449;28;20377;-80
2021/06/12 00:23:16;;;;;;;9.43;8.07;;;19.70;99.90;;;;;;5089089;28;20410;-83
2021/06/12 00:25:42;;;;;;;8.82;7.93;;;19.70;99.90;;;;;;5071569;28;20377;-81
2021/06/12 00:28:07;;;;;;;10.25;7.65;;;19.70;99.90;;;;;;5089806;28;20788;-82
2021/06/12 00:30:33;;;;;;;10.43;8.40;;;19.70;99.90;;;;;;5089772;28;20375;-79
2021/06/12 00:33:00;;;;;;;8.88;7.93;;;19.60;99.90;;;;;;5089689;28;20368;-82
2021/06/12 00:35:26;;;;;;;8.45;7.38;;;19.70;99.90;;;;;;5089621;28;20396;-81
2021/06/12 00:37:52;;;;;;;12.98;7.78;;;19.70;99.90;;;;;;5089405;28;20376;-81
2021/06/12 00:40:19;;;;;;;9.13;7.45;;;19.70;99.90;;;;;;5089204;28;20377;-81
2021/06/12 00:42:46;;;;;;;11.82;8.55;;;19.70;99.90;;;;;;5089719;28;20451;-82
2021/06/12 00:45:20;;;;;;;8.63;7.70;;;19.60;99.90;;;;;;5089568;28;20788;-82
2021/06/12 00:47:47;;;;;;;11.75;7.10;;;19.60;99.90;;;;;;5089305;28;21324;-79
2021/06/12 00:50:13;;;;;;;8.40;7.57;;;19.60;99.90;;;;;;5089476;28;20739;-84
2021/06/12 00:52:39;;;;;;;9.03;7.67;;;19.60;99.90;;;;;;5088971;28;20396;-84
2021/06/12 00:55:06;;;;;;;8.20;7.40;;;19.60;99.90;;;;;;5088934;28;20457;-81
2021/06/12 00:57:33;;;;;;;11.98;7.78;;;19.60;99.90;;;;;;5089627;28;20455;-82
2021/06/12 01:00:00;;;;;;;10.25;7.38;;;19.60;99.90;;;;;;5089522;28;20376;-83
2021/06/12 01:02:25;;;;;;;8.30;7.50;;;19.70;99.90;;;;;;5071626;28;20381;-80
2021/06/12 01:04:51;;;;;;;7.90;7.20;;;19.70;99.90;;;;;;5089279;28;20375;-84
2021/06/12 01:07:17;;;;;;;8.23;6.85;;;19.70;99.90;;;;;;5089363;28;20442;-82
2021/06/12 01:09:42;;;;;;;8.10;7.30;;;19.70;99.90;;;;;;5089335;28;20384;-79
2021/06/12 01:12:20;;;;;;;8.40;7.30;;;19.70;99.90;;;;;;5088432;28;20492;-81
2021/06/12 01:14:51;;;;;;;7.75;7.05;;;19.70;99.90;;;;;;5089230;28;20388;-84
2021/06/12 01:17:57;;;;;;;14.27;7.87;;;19.70;99.90;;;;;;5070951;28;20766;-81
2021/06/12 01:20:38;;;;;;;9.45;7.88;;;19.70;99.90;;;;;;5070875;28;20372;-84
2021/06/12 01:23:10;;;;;;;11.93;7.57;;;19.70;99.90;;;;;;5070835;28;20464;-83
2021/06/12 01:25:57;;;;;;;13.43;8.30;;;19.70;99.90;;;;;;5088867;28;20507;-80
2021/06/12 01:28:22;;;;;;;19.17;7.93;;;19.60;99.90;;;;;;5088910;28;20510;-83
2021/06/12 01:30:53;;;;;;;13.00;8.30;;;19.70;99.90;;;;;;5088730;28;20491;-79
2021/06/12 01:33:20;;;;;;;12.43;8.10;;;19.70;99.90;;;;;;5070656;28;20385;-82
2021/06/12 01:36:00;;;;;;;14.60;8.83;;;19.70;99.90;;;;;;5070503;28;20377;-82
2021/06/12 01:38:28;;;;;;;13.73;8.82;;;19.70;99.90;;;;;;5070494;28;20854;-83
2021/06/12 01:41:02;;;;;;;8.40;7.55;;;19.70;99.90;;;;;;5070275;28;20518;-82
2021/06/12 01:43:30;;;;;;;8.13;7.32;;;19.70;99.90;;;;;;5089473;28;20373;-80
2021/06/12 01:45:57;;;;;;;9.23;8.27;;;19.70;99.90;;;;;;5088930;28;20383;-83
2021/06/12 01:48:23;;;;;;;9.88;7.88;;;19.70;99.90;;;;;;5088712;28;20375;-81
2021/06/12 01:50:49;;;;;;;8.85;7.88;;;19.70;99.90;;;;;;5088661;28;20439;-84
2021/06/12 01:53:18;;;;;;;15.40;8.38;;;19.70;99.90;;;;;;5088364;28;20372;-81
2021/06/12 01:55:45;;;;;;;10.10;7.67;;;19.70;99.90;;;;;;5088626;28;20419;-83
2021/06/12 01:58:20;;;;;;;9.48;8.48;;;19.70;99.90;;;;;;5088470;28;20369;-83
2021/06/12 02:00:46;;;;;;;8.40;7.60;;;19.60;99.90;;;;;;5088265;28;20461;-85
2021/06/12 02:03:13;;;;;;;9.90;8.90;;;19.60;99.90;;;;;;5088486;28;20446;-82
2021/06/12 02:05:41;;;;;;;8.35;7.65;;;19.60;99.90;;;;;;5088498;28;20595;-81
2021/06/12 02:08:08;;;;;;;8.80;7.90;;;19.60;99.90;;;;;;5088386;28;20373;-81
2021/06/12 02:10:34;;;;;;;8.10;7.30;;;19.70;99.90;;;;;;5070019;28;20380;-80
2021/06/12 02:13:00;;;;;;;9.30;8.40;;;19.70;99.90;;;;;;5088515;28;20380;-85
2021/06/12 02:15:28;;;;;;;9.65;8.50;;;19.70;99.90;;;;;;5088320;28;20390;-82
2021/06/12 02:17:58;;;;;;;8.63;7.77;;;19.70;99.90;;;;;;5070391;28;20462;-83
2021/06/12 02:20:24;;;;;;;8.98;8.18;;;19.70;99.90;;;;;;5088286;28;20393;-82
2021/06/12 02:22:51;;;;;;;9.20;8.30;;;19.70;99.90;;;;;;5088518;28;20909;-82
2021/06/12 02:25:18;;;;;;;10.20;9.10;;;19.70;99.90;;;;;;5092323;28;20727;-81
2021/06/12 02:27:55;;;;;;;11.43;9.50;;;19.70;99.90;;;;;;5092422;28;20418;-79
2021/06/12 02:30:24;;;;;;;10.10;9.03;;;19.70;99.90;;;;;;5092000;28;20870;-82
2021/06/12 02:33:01;;;;;;;9.45;8.55;;;19.60;99.90;;;;;;5091907;28;20862;-83
2021/06/12 02:35:27;;;;;;;9.50;8.60;;;19.50;99.90;;;;;;5092171;28;20893;-78
2021/06/12 02:37:53;;;;;;;9.80;8.85;;;19.60;99.90;;;;;;5073441;28;20377;-82
2021/06/12 02:40:19;;;;;;;9.03;8.20;;;19.60;99.90;;;;;;5091797;28;20421;-81
2021/06/12 02:42:44;;;;;;;9.38;8.48;;;19.60;99.90;;;;;;5073463;28;20384;-83
2021/06/12 02:45:11;;;;;;;8.70;7.90;;;19.60;99.90;;;;;;5092123;28;20411;-84
2021/06/12 02:47:52;;;;;;;8.95;8.13;;;19.60;99.90;;;;;;5091540;28;20380;-82
2021/06/12 02:50:20;;;;;;;9.53;8.63;;;19.70;99.90;;;;;;5073690;28;21145;-82
2021/06/12 02:52:47;;;;;;;8.18;7.40;;;19.60;99.90;;;;;;5091564;28;20388;-82
2021/06/12 02:55:14;;;;;;;8.70;7.82;;;19.60;99.90;;;;;;5091565;28;20372;-82
2021/06/12 02:57:44;;;;;;;8.95;8.15;;;19.50;99.90;;;;;;5091393;28;20905;-83
2021/06/12 03:00:11;;;;;;;8.55;7.85;;;19.60;99.90;;;;;;5073427;28;20909;-80
2021/06/12 03:02:39;;;;;;;9.10;8.23;;;19.50;99.90;;;;;;5091679;28;20384;-82
2021/06/12 03:05:10;;;;;;;8.40;7.47;;;19.50;99.90;;;;;;5091290;28;20364;-80
2021/06/12 03:07:36;;;;;;;8.30;7.57;;;19.50;99.90;;;;;;5090880;28;20383;-81
2021/06/12 03:10:03;;;;;;;8.45;7.68;;;19.50;99.90;;;;;;5072875;28;20399;-81
2021/06/12 03:12:31;;;;;;;8.80;7.90;;;19.50;99.90;;;;;;5091295;28;20384;-82
2021/06/12 03:14:58;;;;;;;8.07;7.35;;;19.60;99.90;;;;;;5091255;28;20386;-82
2021/06/12 03:17:27;;;;;;;8.15;7.45;;;19.60;99.90;;;;;;5073153;28;20412;-82
2021/06/12 03:19:54;;;;;;;7.72;6.93;;;19.70;99.90;;;;;;5072426;28;20769;-80
2021/06/12 03:22:20;;;;;;;7.28;6.68;;;19.70;99.90;;;;;;5090856;28;20395;-80
2021/06/12 03:24:46;;;;;;;9.00;7.50;;;19.80;99.90;;;;;;5090892;28;20442;-82
2021/06/12 03:27:13;;;;;;;8.37;7.57;;;19.80;99.90;;;;;;5055796;28;21557;-81
2021/06/12 03:29:40;;;;;;;8.48;7.50;;;19.80;99.90;;;;;;5072787;28;20920;-84
2021/06/12 03:32:06;;;;;;;7.72;7.03;;;19.80;99.90;;;;;;5072689;28;20416;-80
2021/06/12 03:34:32;;;;;;;7.75;7.05;;;19.80;99.90;;;;;;5072272;28;20881;-80
2021/06/12 03:36:59;;;;;;;9.23;7.80;;;19.80;99.90;;;;;;5090666;28;20727;-79
2021/06/12 03:39:25;;;;;;;7.93;7.13;;;19.80;99.90;;;;;;5072629;28;20407;-81
2021/06/12 03:41:52;;;;;;;8.43;7.73;;;19.80;99.90;;;;;;5090781;28;20368;-84
2021/06/12 03:44:20;;;;;;;7.80;7.15;;;19.90;99.90;;;;;;5090455;28;20372;-82
2021/06/12 03:46:47;;;;;;;8.98;7.65;;;19.90;99.90;;;;;;5072351;28;20944;-83
2021/06/12 03:49:14;;;;;;;7.88;7.18;;;19.90;99.90;;;;;;5090589;28;20859;-81
2021/06/12 03:51:40;;;;;;;7.57;6.93;;;19.90;99.90;;;;;;5071845;28;20486;-81
2021/06/12 03:54:08;;;;;;;7.80;7.10;;;20.00;99.90;;;;;;5090780;28;20399;-83
2021/06/12 03:56:36;;;;;;;7.53;6.93;;;20.00;99.90;;;;;;5090467;28;20388;-82
2021/06/12 03:59:03;;;;;;;8.00;7.27;;;20.10;99.90;;;;;;5090475;28;20459;-84
2021/06/12 04:01:29;;;;;;;7.20;6.43;;;20.20;99.90;;;;;;5090411;28;20886;-84
2021/06/12 04:03:55;;;;;;;7.40;6.80;;;20.20;99.90;;;;;;5090174;28;20384;-81
2021/06/12 04:06:21;;;;;;;7.38;6.68;;;20.30;99.90;;;;;;5090428;28;20483;-83
2021/06/12 04:08:49;;;;;;;10.43;6.97;;;20.40;99.90;;;;;;5090243;28;20775;-83
2021/06/12 04:11:15;;;;;;;9.27;7.53;;;20.40;99.90;;;;;;5072289;28;20481;-80
2021/06/12 04:13:41;;;;;;;10.80;7.23;;;20.40;99.90;;;;;;5090074;28;20418;-82
2021/06/12 04:16:08;;;;;;;11.02;7.82;;;20.50;99.90;;;;;;5071904;28;20376;-82
2021/06/12 04:18:34;;;;;;;9.80;7.20;;;20.60;99.90;;;;;;5090636;28;20372;-83
2021/06/12 04:20:59;;;;;;;7.70;6.93;;;20.60;99.90;;;;;;5089988;28;20427;-82
2021/06/12 04:23:25;;;;;;;7.50;6.80;;;20.70;99.90;;;;;;5089917;28;20403;-81
2021/06/12 04:25:51;;;;;;;7.80;7.00;;;20.70;99.90;;;;;;5089943;28;20411;-84
2021/06/12 04:28:16;;;;;;;6.57;6.07;;;20.70;99.90;;;;;;5090026;28;20361;-84
2021/06/12 04:30:42;;;;;;;8.57;6.60;;;20.80;99.90;;;;;;5090006;28;20785;-82
2021/06/12 04:33:08;;;;;;;8.13;7.20;;;20.90;99.90;;;;;;5071589;28;20391;-82
2021/06/12 04:35:33;;;;;;;7.67;7.00;;;20.90;99.90;;;;;;5089606;28;20372;-85
2021/06/12 04:38:00;;;;;;;11.15;7.53;;;21.00;99.90;;;;;;5089661;28;20724;-83
2021/06/12 04:40:33;;;;;;;7.93;7.13;;;21.10;99.90;;;;;;5071635;28;20440;-82
2021/06/12 04:43:01;;;;;;;11.70;7.32;;;21.10;99.90;;;;;;5089720;28;20408;-80
2021/06/12 04:45:27;;;;;;;7.47;6.38;;;21.10;99.90;;;;;;5089597;28;20368;-80
2021/06/12 04:47:53;;;;;;;9.37;8.10;;;21.20;99.90;;;;;;5088514;28;20727;-79
2021/06/12 04:50:18;;;;;;;8.02;7.22;;;21.10;99.90;;;;;;5089535;28;20885;-79
2021/06/12 04:52:44;;;;;;;7.97;7.18;;;21.10;99.90;;;;;;5089102;28;20499;-84
2021/06/12 04:55:11;;;;;;;7.90;7.10;;;21.20;99.90;;;;;;5089349;28;20377;-85
2021/06/12 04:57:38;;;;;;;7.65;6.90;;;21.30;99.90;;;;;;5089310;28;20485;-82
2021/06/12 05:00:06;;;;;;;7.95;7.15;;;21.40;99.90;;;;;;5089087;28;20900;-83
2021/06/12 05:02:32;;;;;;;7.57;6.88;;;21.50;99.90;;;;;;5088568;28;20380;-85
2021/06/12 05:04:58;;;;;;;8.70;7.00;;;21.50;99.90;;;;;;5089403;28;20369;-80
2021/06/12 05:07:23;;;;;;;9.07;6.40;;;21.70;99.90;;;;;;5071258;28;20392;-81
2021/06/12 05:09:49;;;;;;;8.17;5.90;;;21.90;99.90;;;;;;5070972;28;20373;-84
2021/06/12 05:12:15;;;;;;;6.23;5.63;;;22.00;99.90;;;;;;5089213;28;20400;-84
2021/06/12 05:14:43;;;;;;;5.90;5.35;;;22.20;99.90;;;;;;5089422;28;20381;-83
2021/06/12 05:17:11;;;;;;;6.22;5.20;;;22.30;99.90;;;;;;5070900;28;20376;-81
2021/06/12 05:19:37;;;;;;;7.90;5.55;;;22.30;99.90;;;;;;5089215;28;20415;-82
2021/06/12 05:22:03;;;;;;;5.93;4.90;;;22.30;99.90;;;;;;5088880;28;20788;-80
2021/06/12 05:24:28;;;;;;;5.95;5.35;;;22.20;99.90;;;;;;5088925;28;20773;-80
2021/06/12 05:26:54;;;;;;;6.03;5.40;;;22.40;99.90;;;;;;5088921;28;20735;-83
2021/06/12 05:29:19;;;;;;;8.50;4.72;;;22.30;99.90;;;;;;5089102;28;20364;-85
2021/06/12 05:31:45;;;;;;;6.00;5.23;;;22.10;99.90;;;;;;5070598;28;20789;-81
2021/06/12 05:34:11;;;;;;;5.60;4.70;;;22.10;99.90;;;;;;5088756;28;20404;-80
2021/06/12 05:36:36;;;;;;;6.32;4.90;;;22.00;99.90;;;;;;5089060;28;20471;-83
2021/06/12 05:39:05;;;;;;;6.90;5.17;;;21.90;99.90;;;;;;5088942;28;20402;-83
2021/06/12 05:41:30;;;;;;;5.07;4.57;;;21.80;99.90;;;;;;5088905;28;20372;-82
2021/06/12 05:43:56;;;;;;;5.10;4.60;;;21.70;99.90;;;;;;5088763;28;20483;-81
2021/06/12 05:46:22;;;;;;;5.27;4.20;;;21.60;99.90;;;;;;5088741;28;20383;-80
2021/06/12 05:48:47;;;;;;;4.80;4.40;;;21.50;99.90;;;;;;5088903;28;20380;-80
2021/06/12 05:51:13;;;;;;;5.77;4.20;;;21.40;99.90;;;;;;5088609;28;20389;-82
2021/06/12 05:53:38;;;;;;;7.07;4.23;;;21.30;99.90;;;;;;5088679;28;20376;-83
2021/06/12 05:56:04;;;;;;;5.55;4.03;;;21.40;99.90;;;;;;5088689;28;20715;-84
2021/06/12 05:58:31;;;;;;;5.20;4.10;;;21.50;99.90;;;;;;5090408;28;20442;-80
2021/06/12 06:00:57;;;;;;;4.43;3.90;;;21.50;99.90;;;;;;5092722;28;20429;-82
2021/06/12 06:03:23;;;;;;;4.43;3.80;;;21.60;99.90;;;;;;5092746;28;20870;-83
2021/06/12 06:05:48;;;;;;;4.30;3.80;;;21.70;99.90;;;;;;5092641;28;20847;-81
2021/06/12 06:08:14;;;;;;;6.00;4.30;;;21.80;99.90;;;;;;5092536;28;20380;-84
2021/06/12 06:10:39;;;;;;;5.90;4.00;;;21.80;99.90;;;;;;5074132;28;20372;-84
2021/06/12 06:13:05;;;;;;;6.27;3.90;;;21.90;99.90;;;;;;5092764;28;20371;-82
2021/06/12 06:15:31;;;;;;;4.32;3.92;;;22.00;99.90;;;;;;5074008;28;20380;-81
2021/06/12 06:17:57;;;;;;;5.72;3.60;;;22.10;99.90;;;;;;5092223;28;20411;-81
2021/06/12 06:20:22;;;;;;;5.53;3.90;;;22.40;99.90;;;;;;5092542;28;20376;-82
2021/06/12 06:22:48;;;;;;;4.63;3.78;;;22.30;99.90;;;;;;5092292;28;20908;-81
2021/06/12 06:25:14;;;;;;;6.17;4.43;;;22.50;99.90;;;;;;5092608;28;20734;-82
2021/06/12 06:27:40;;;;;;;4.72;4.30;;;22.60;99.90;;;;;;5092242;28;20361;-84
2021/06/12 06:30:07;;;;;;;4.97;3.93;;;22.60;99.90;;;;;;5092285;28;20851;-82
2021/06/12 06:32:33;;;;;;;5.75;3.85;;;22.80;99.90;;;;;;5092128;28;20392;-81
2021/06/12 06:34:59;;;;;;;5.55;3.72;;;23.00;99.90;;;;;;5092242;28;20383;-81
2021/06/12 06:37:24;;;;;;;6.28;3.90;;;23.00;99.90;;;;;;5092014;28;20886;-81
2021/06/12 06:39:50;;;;;;;5.07;4.10;;;23.00;99.90;;;;;;5091989;28;20372;-85
2021/06/12 06:42:16;;;;;;;5.63;5.03;;;23.00;99.90;;;;;;5091986;28;20372;-82
2021/06/12 06:44:41;;;;;;;6.70;4.70;;;22.80;99.90;;;;;;5091664;28;20377;-83
2021/06/12 06:47:07;;;;;;;5.90;4.63;;;22.80;99.90;;;;;;5091819;28;20464;-82
2021/06/12 06:49:34;;;;;;;5.78;4.50;;;22.70;99.90;;;;;;5091848;28;20392;-84
2021/06/12 06:52:01;;;;;;;5.90;4.25;;;22.60;99.90;;;;;;5073583;28;20405;-83
2021/06/12 06:54:26;;;;;;;6.53;4.82;;;22.60;99.90;;;;;;5091987;28;20375;-84
2021/06/12 06:56:52;;;;;;;5.20;4.70;;;22.60;99.90;;;;;;5091706;28;20444;-80
2021/06/12 06:59:17;;;;;;;8.27;5.07;;;22.50;99.90;;;;;;5091601;28;20364;-81
2021/06/12 07:01:43;;;;;;;6.45;5.38;;;22.60;99.90;;;;;;5091977;28;20433;-81
2021/06/12 07:04:09;;;;;;;6.17;5.50;;;22.40;99.90;;;;;;5091668;28;20380;-81
2021/06/12 07:06:34;;;;;;;8.43;5.03;;;22.30;99.90;;;;;;5091794;28;20373;-79
2021/06/12 07:09:00;;;;;;;5.47;4.80;;;22.40;99.90;;;;;;5091316;28;20373;-81
2021/06/12 07:11:26;;;;;;;11.73;5.47;;;22.50;99.90;;;;;;5090919;28;20407;-83
2021/06/12 07:13:51;;;;;;;6.63;5.00;;;22.50;99.90;;;;;;5073130;28;20969;-84
2021/06/12 07:16:17;;;;;;;7.53;6.17;;;22.50;99.90;;;;;;5091399;28;20854;-81
2021/06/12 07:18:42;;;;;;;6.20;5.55;;;22.30;99.90;;;;;;5091542;28;20376;-79
2021/06/12 07:21:08;;;;;;;6.70;5.83;;;22.00;99.90;;;;;;5091358;28;20434;-78
2021/06/12 07:23:33;;;;;;;8.40;6.50;;;22.10;99.90;;;;;;5091329;28;20384;-80
2021/06/12 07:25:59;;;;;;;7.57;6.15;;;22.00;99.90;;;;;;5091422;28;20870;-80
2021/06/12 07:28:24;;;;;;;6.57;5.97;;;22.00;99.90;;;;;;5091330;28;20377;-80
2021/06/12 07:30:50;;;;;;;8.13;5.80;;;22.10;99.90;;;;;;5091178;28;20926;-80
2021/06/12 07:33:16;;;;;;;8.90;6.80;;;22.20;99.90;;;;;;5090906;28;20384;-80
2021/06/12 07:35:43;;;;;;;9.88;7.65;;;22.10;99.90;;;;;;5091143;28;20395;-82
2021/06/12 07:38:09;;;;;;;8.98;6.90;;;22.10;99.90;;;;;;5072898;28;20433;-80
2021/06/12 07:40:35;;;;;;;11.70;7.20;;;22.00;99.90;;;;;;5090775;28;20953;-80
2021/06/12 07:43:01;;;;;;;9.55;6.97;;;22.00;99.90;;;;;;5072792;28;20468;-81
2021/06/12 07:45:26;;;;;;;9.93;7.37;;;22.10;99.90;;;;;;5090522;28;20373;-79
2021/06/12 07:47:52;;;;;;;8.93;7.40;;;22.10;99.90;;;;;;5088645;28;20372;-82
2021/06/12 07:50:18;;;;;;;11.07;7.10;;;22.30;99.90;;;;;;5070882;28;20851;-82
2021/06/12 07:52:44;;;;;;;10.88;8.07;;;22.50;99.90;;;;;;5090158;28;20431;-82
2021/06/12 07:55:11;;;;;;;10.13;7.60;;;22.60;99.90;;;;;;5089533;28;20807;-82
2021/06/12 07:57:38;;;;;;;12.00;8.68;;;22.70;99.90;;;;;;5089856;28;20369;-82
2021/06/12 08:00:05;;;;;;;16.20;9.70;;;22.90;99.90;;;;;;5089725;28;20369;-81
2021/06/12 08:02:31;;;;;;;18.83;10.63;;;23.00;99.90;;;;;;5090031;28;20463;-81
2021/06/12 08:04:57;;;;;;;17.52;9.38;;;23.00;99.90;;;;;;5089919;28;20459;-82
2021/06/12 08:07:22;;;;;;;12.50;9.20;;;23.30;99.90;;;;;;5089760;28;20883;-81
2021/06/12 08:09:50;;;;;;;11.13;9.52;;;23.50;99.90;;;;;;5070497;28;20879;-82
2021/06/12 08:12:16;;;;;;;17.25;11.18;;;23.70;99.90;;;;;;5088646;28;20408;-82
2021/06/12 08:14:42;;;;;;;12.93;11.05;;;23.80;99.90;;;;;;5087990;28;20433;-81
2021/06/12 08:17:07;;;;;;;17.15;12.00;;;23.80;99.90;;;;;;5089954;28;20396;-82
2021/06/12 08:19:35;;;;;;;14.30;12.80;;;23.70;99.90;;;;;;5089242;28;20426;-82
2021/06/12 08:22:00;;;;;;;17.17;12.77;;;23.60;99.90;;;;;;5089125;28;20445;-81
2021/06/12 08:24:26;;;;;;;18.67;11.47;;;23.70;99.90;;;;;;5089558;28;20377;-80
2021/06/12 08:26:52;;;;;;;15.40;10.63;;;23.80;99.90;;;;;;5068178;28;20442;-82
2021/06/12 08:29:17;;;;;;;14.13;10.75;;;24.00;99.90;;;;;;5089429;28;20430;-82
2021/06/12 08:31:43;;;;;;;15.43;11.93;;;24.00;99.90;;;;;;5089402;28;20402;-82
2021/06/12 08:34:08;;;;;;;15.20;11.38;;;23.90;99.90;;;;;;5089187;28;20392;-87
2021/06/12 08:36:34;;;;;;;15.20;12.57;;;23.70;99.90;;;;;;5071134;28;20443;-83
2021/06/12 08:39:00;;;;;;;14.73;12.70;;;23.20;99.90;;;;;;5090358;28;20416;-84
2021/06/12 08:41:25;;;;;;;20.85;13.05;;;23.00;99.90;;;;;;5092344;28;20430;-88
2021/06/12 08:44:00;;;;;;;21.90;13.17;;;22.80;99.90;;;;;;5072403;28;20807;-83
2021/06/12 08:46:27;;;;;;;15.32;11.55;;;22.60;99.90;;;;;;5071740;28;20742;-83
2021/06/12 08:48:54;;;;;;;15.80;11.55;;;22.60;99.90;;;;;;5088991;28;20419;-85
2021/06/12 08:51:20;;;;;;;17.25;12.23;;;22.40;99.90;;;;;;5090705;28;20408;-85
2021/06/12 08:53:48;;;;;;;19.70;13.10;;;22.20;99.90;;;;;;5092565;28;20368;-85
2021/06/12 08:56:13;;;;;;;17.40;13.57;;;22.10;99.90;;;;;;5089739;28;20388;-83
2021/06/12 08:58:39;;;;;;;19.27;13.75;;;22.00;99.90;;;;;;5071283;28;20479;-84
2021/06/12 09:01:05;;;;;;;20.85;14.82;;;21.80;99.90;;;;;;5088619;28;20373;-83
2021/06/12 09:03:38;;;;;;;15.80;14.00;;;21.70;99.90;;;;;;5071199;28;20380;-83
2021/06/12 09:06:04;;;;;;;17.23;14.50;;;21.50;99.90;;;;;;5090710;28;20391;-83
2021/06/12 09:08:32;;;;;;;16.73;14.43;;;21.20;99.90;;;;;;5069590;28;20378;-85
2021/06/12 09:11:02;;;;;;;15.82;14.13;;;21.30;99.90;;;;;;5068984;28;20374;-82
2021/06/12 09:13:34;;;;;;;15.88;14.30;;;21.20;99.90;;;;;;5069077;28;20382;-82
2021/06/12 09:16:01;;;;;;;19.23;16.10;;;21.20;99.90;;;;;;5069007;28;20435;-83
2021/06/12 09:18:54;;;;;;;20.95;17.42;;;21.10;99.90;;;;;;5052264;28;20382;-83
2021/06/12 09:21:24;;;;;;;23.17;19.73;;;21.00;99.90;;;;;;5085245;28;20870;-81
2021/06/12 09:23:52;;;;;;;19.80;17.60;;;20.90;99.90;;;;;;5088955;28;20396;-82
2021/06/12 09:26:19;;;;;;;20.00;17.98;;;20.80;99.90;;;;;;5089094;28;20381;-81
2021/06/12 09:28:50;;;;;;;19.77;17.77;;;20.90;99.90;;;;;;5089315;28;20378;-87
2021/06/12 09:31:24;;;;;;;20.45;17.05;;;21.00;99.90;;;;;;5071667;28;20969;-82
2021/06/12 09:33:54;;;;;;;19.00;17.00;;;21.30;99.90;;;;;;5088295;28;20890;-82
2021/06/12 09:36:20;;;;;;;16.88;14.75;;;21.50;99.90;;;;;;5089032;28;20415;-82
2021/06/12 09:38:45;;;;;;;17.73;15.83;;;21.60;99.90;;;;;;5070864;28;20457;-83
2021/06/12 09:41:21;;;;;;;16.85;14.85;;;21.70;99.90;;;;;;5088969;28;20858;-83
2021/06/12 09:43:47;;;;;;;17.65;15.85;;;21.70;99.90;;;;;;5070699;28;20388;-82
2021/06/12 09:46:33;;;;;;;15.87;14.33;;;21.70;99.90;;;;;;5088643;28;20363;-81
2021/06/12 09:48:58;;;;;;;16.10;14.57;;;21.90;99.90;;;;;;5089103;28;20510;-81
2021/06/12 09:51:24;;;;;;;15.45;14.05;;;22.00;99.90;;;;;;5070698;28;20985;-81
2021/06/12 09:53:56;;;;;;;15.93;14.23;;;22.10;99.90;;;;;;5070648;28;20392;-82
2021/06/12 09:56:23;;;;;;;14.27;12.93;;;22.00;99.90;;;;;;5088502;28;20890;-82
2021/06/12 09:58:49;;;;;;;14.77;13.30;;;22.20;99.90;;;;;;5070647;28;20993;-82
2021/06/12 10:01:18;;;;;;;14.63;12.23;;;22.20;99.90;;;;;;5088815;28;20376;-82
2021/06/12 10:03:43;;;;;;;13.80;12.40;;;22.50;99.90;;;;;;5088966;28;20409;-83
2021/06/12 10:06:23;;;;;;;13.23;11.75;;;22.80;99.90;;;;;;5070394;28;20389;-82
2021/06/12 10:08:50;;;;;;;17.27;11.47;;;23.20;99.90;;;;;;5070883;28;20384;-83
2021/06/12 10:11:19;;;;;;;12.68;10.93;;;23.70;99.90;;;;;;5087956;28;20879;-82
2021/06/12 10:13:47;;;;;;;11.85;10.55;;;24.10;99.90;;;;;;5069790;28;20420;-82
2021/06/12 10:16:14;;;;;;;10.85;9.60;;;24.40;99.90;;;;;;5070190;28;20438;-85
2021/06/12 10:18:41;;;;;;;13.57;9.30;;;;;;;;;;5090307;28;20511;-84
2021/06/12 10:21:10;;;;;;;10.50;9.40;;;;;;;;;;5087870;28;20847;-84
2021/06/12 10:23:38;;;;;;;12.13;9.55;;;;;;;;;;5085612;28;20391;-85
2021/06/12 10:26:05;;;;;;;10.77;8.43;;;;;;;;;;5087755;28;20521;-84
2021/06/12 10:28:31;;;;;;;9.00;8.10;;;;;;;;;;5087248;28;20369;-84
2021/06/12 10:30:57;;;;;;;9.88;7.82;;;;;;;;;;5086953;28;20399;-83
2021/06/12 10:33:24;;;;;;;8.15;6.75;;;;;;;;;;5087735;28;20471;-85
2021/06/12 10:35:50;;;;;;;8.68;5.90;;;;;;;;;;5086877;28;20916;-85
2021/06/12 10:38:16;;;;;;;9.35;5.55;;;;;;;;;;5087344;28;20872;-86
2021/06/12 10:40:43;;;;;;;6.93;5.32;;;;;;;;;;5069337;28;20384;-87
2021/06/12 10:43:10;;;;;;;8.60;5.97;;;;;;;;;;5069128;28;20735;-84
2021/06/12 10:45:36;;;;;;;8.20;6.10;;;;;;;;;;5069283;28;20376;-86
2021/06/12 10:48:03;;;;;;;10.00;7.10;;;;;;;;;;5070970;28;20376;-85
2021/06/12 10:50:40;;;;;;;7.63;6.93;;;;;;;;;;5066938;28;20372;-86
2021/06/12 10:53:22;;;;;;;9.65;7.22;;;;;;;;;;5088257;28;20419;-85
2021/06/12 10:55:52;;;;;;;9.40;7.15;;;;;;;;;;5087921;28;20369;-87
2021/06/12 10:58:30;;;;;;;10.40;6.55;;;;;;;;;;5090653;28;20379;-84
2021/06/12 11:01:09;;;;;;;11.02;6.78;;;;;;;;;;5080385;28;20501;-85
2021/06/12 11:03:42;;;;;;;7.32;6.65;;;;;;;;;;5088123;28;20377;-85
2021/06/12 11:09:20;;;;;;;6.75;5.63;;;;;;;;;;5018099;28;20389;-83
2021/06/12 11:11:46;;;;;;;7.70;5.38;;;;;;;;;;5053684;28;20477;-83
2021/06/12 11:14:21;;;;;;;6.72;5.00;;;;;;;;;;5089700;28;20369;-85
2021/06/12 11:17:09;;;;;;;5.53;5.00;;;;;;;;;;5066159;28;20394;-87
2021/06/12 11:19:40;;;;;;;5.30;4.40;;;;;;;;;;5069383;28;20406;-85
2021/06/12 11:22:25;;;;;;;5.78;4.47;;;;;;;;;;5068211;28;20380;-83
2021/06/12 11:25:15;;;;;;;6.60;4.13;;;;;;;;;;5087362;28;20820;-86
2021/06/12 11:27:41;;;;;;;5.28;4.43;;;;;;;;;;5032341;28;20381;-85
2021/06/12 11:30:19;;;;;;;5.57;3.92;;;;;;;;;;5090345;28;20392;-85
2021/06/12 11:32:51;;;;;;;8.25;4.32;;;;;;;;;;5070413;28;20906;-85
2021/06/12 11:35:37;;;;;;;8.33;3.87;;;;;;;;;;5087585;28;20467;-87
2021/06/12 11:38:04;;;;;;;10.52;5.05;;;;;;;;;;5054412;28;20376;-83
2021/06/12 11:40:30;;;;;;;5.65;4.40;;;;;;;;;;5071749;28;20412;-88
2021/06/12 11:42:56;;;;;;;7.78;4.53;;;;;;;;;;5071784;28;20739;-87
2021/06/12 11:45:23;;;;;;;4.95;3.97;;;;;;;;;;5072578;28;20879;-88
2021/06/12 11:47:50;;;;;;;7.07;4.55;;;;;;;;;;5072979;28;20369;-84
2021/06/12 11:50:24;;;;;;;8.43;4.35;;;;;;;;;;5072420;28;20404;-85
2021/06/12 11:52:50;;;;;;;12.67;4.83;;;;;;;;;;5072218;28;20401;-84
2021/06/12 11:55:21;;;;;;;9.40;3.05;;;;;;;;;;5071956;28;20373;-83
2021/06/12 11:57:48;;;;;;;7.65;3.00;;;;;;;;;;5085865;28;20384;-81
2021/06/12 12:00:33;;;;;;;6.50;3.22;;;;;;;;;;5081282;28;20364;-81
2021/06/12 12:03:09;;;;;;;8.23;3.77;;;;;;;;;;5052008;28;20386;-82
2021/06/12 12:05:36;;;;;;;4.25;3.60;;;;;;;;;;5082944;28;20383;-81
2021/06/12 12:08:06;;;;;;;4.60;4.20;;;;;;;;;;5093635;28;20897;-79
2021/06/12 12:10:32;;;;;;;5.82;3.95;;;;;;;;;;5082384;28;20372;-81
2021/06/12 12:12:59;;;;;;;5.65;4.50;;;;;;;;;;5085830;28;20411;-79
2021/06/12 12:15:38;;;;;;;6.28;4.63;;;;;;;;;;5086215;28;20380;-83
2021/06/12 12:18:06;;;;;;;4.82;4.30;;;;;;;;;;5085392;28;20394;-80
2021/06/12 12:20:38;;;;;;;5.95;4.88;;;;;;;;;;5074665;28;20390;-83
2021/06/12 12:23:17;;;;;;;4.90;4.40;;;;;;;;;;5091223;28;20381;-81
2021/06/12 12:25:43;;;;;;;7.00;4.63;;;;;;;;;;5084407;28;20373;-84
2021/06/12 12:28:10;;;;;;;7.75;4.55;;;;;;;;;;5085389;28;20364;-82
2021/06/12 12:30:37;;;;;;;6.18;4.60;;;;;;;;;;5072262;28;20454;-83
2021/06/12 12:33:07;;;;;;;4.80;4.35;;;;;;;;;;5092220;28;20415;-83
2021/06/12 12:35:33;;;;;;;5.43;4.38;;;;;;;;;;5085832;28;20468;-80
2021/06/12 12:38:19;;;;;;;7.50;5.07;;;;;;;;;;5086175;28;20972;-84
2021/06/12 12:40:45;;;;;;;5.15;4.65;;;;;;;;;;5085995;28;20373;-83
2021/06/12 12:43:13;;;;;;;5.28;4.78;;;;;;;;;;5086182;28;20373;-81
2021/06/12 12:45:40;;;;;;;5.90;4.75;;;;;;;;;;5068063;28;20384;-82
2021/06/12 12:48:06;;;;;;;5.22;4.72;;;;;;;;;;5085411;28;20841;-83
2021/06/12 12:50:32;;;;;;;5.90;5.28;;;;;;;;;;5067326;28;20449;-82
2021/06/12 12:53:06;;;;;;;5.55;4.95;;;;;;;;;;5074124;28;20392;-80
2021/06/12 12:55:32;;;;;;;5.57;5.07;;;;;;;;;;5084597;28;20430;-81
2021/06/12 12:58:00;;;;;;;8.95;5.90;;;;;;;;;;5085669;28;20408;-80
2021/06/12 13:00:30;;;;;;;10.98;5.93;;;;;;;;;;5078783;28;20478;-81
2021/06/12 13:03:05;;;;;;;6.20;5.60;;;;;;;;;;5079792;28;20388;-80
2021/06/12 13:05:36;;;;;;;8.05;5.85;;;;;;;;;;5063983;28;20388;-80
2021/06/12 13:08:03;;;;;;;7.47;5.97;;;;;;;;;;5080000;28;20376;-81
2021/06/12 13:10:31;;;;;;;7.72;6.45;;;;;;;;;;5081596;28;20426;-81
2021/06/12 13:12:58;;;;;;;9.38;6.82;;;;;;;;;;5080678;28;21002;-80